East Blacksea — T2ZH3 — position and weather

sailwx.info

Track history (hours):
 
Tides and Currents Weather Stations Pressure Air Temp Water Temp Dewpoint Dewpoint Depression Visibility Wind Speed Wind Dir Waves Ship Positions

East Blacksea

Last reported at 2014-Sep-06 09:28 UTC. Time now 2014-Sep-19 23:58 UTC.
Position N 40°53' E 029°11'.
Warning: this ship's position is 13 days out of date.

Length 69 m; draft 2.9 m.

Type: Cargo ship. MMSI: 572341210.

Date/timePositionNaut miles runAvg speedWind from/ knotsBaromVisibWave heightAir tempDewpointWater temp
2014-Sep-06 09:28N 40°53' E 029°11'0 0.0
2014-Sep-06 08:29N 40°53' E 029°11'0 0.0
2014-Sep-06 07:33N 40°53' E 029°11'5 4.5
2014-Sep-06 06:33N 40°50' E 029°07'8 8.1
2014-Sep-06 05:31N 40°53' E 028°57'5 5.2
2014-Sep-06 04:33N 40°58' E 028°55'0 0.0
2014-Sep-06 03:33N 40°58' E 028°55'0 0.0
2014-Sep-06 02:33N 40°58' E 028°55'0 0.0
2014-Sep-06 01:32N 40°58' E 028°55'0 0.0
2014-Sep-06 00:33N 40°58' E 028°55'3 3.5
2014-Sep-05 23:33N 40°59' E 028°59'191 5.9
2014-Sep-04 15:20N 44°10' E 028°39'  
2014-Sep-01 18:24N 42°07' E 036°57'10 8.7
2014-Sep-01 17:18N 42°07' E 037°10'  
Track history (hours):
 
Tides and Currents Weather Stations Pressure Air Temp Water Temp Dewpoint Dewpoint Depression Visibility Wind Speed Wind Dir Waves Ship Positions

East Blacksea

Last reported at 2014-Sep-06 09:28 UTC. Time now 2014-Sep-19 23:58 UTC.
Position N 40°53' E 029°11'.
Warning: this ship's position is 13 days out of date.

Length 69 m; draft 2.9 m.

Type: Cargo ship. MMSI: 572341210.

Date/timePositionNaut miles runAvg speedWind from/ knotsBaromVisibWave heightAir tempDewpointWater temp
2014-Sep-06 09:28N 40°53' E 029°11'0 0.0
2014-Sep-06 08:29N 40°53' E 029°11'0 0.0
2014-Sep-06 07:33N 40°53' E 029°11'5 4.5
2014-Sep-06 06:33N 40°50' E 029°07'8 8.1
2014-Sep-06 05:31N 40°53' E 028°57'5 5.2
2014-Sep-06 04:33N 40°58' E 028°55'0 0.0
2014-Sep-06 03:33N 40°58' E 028°55'0 0.0
2014-Sep-06 02:33N 40°58' E 028°55'0 0.0
2014-Sep-06 01:32N 40°58' E 028°55'0 0.0
2014-Sep-06 00:33N 40°58' E 028°55'3 3.5
2014-Sep-05 23:33N 40°59' E 028°59'191 5.9
2014-Sep-04 15:20N 44°10' E 028°39'  
2014-Sep-01 18:24N 42°07' E 036°57'10 8.7
2014-Sep-01 17:18N 42°07' E 037°10'  

Dump ship's entire track history